Time;durP1;ratioP1;P1;durP2;ratioP2;P2;SDS_P1;SDS_P2;PMS_P1;PMS_P2;Temp;Humidity;BMP_temperature;BMP_pressure;BME280_temperature;BME280_humidity;BME280_pressure;Samples;Min_cycle;Max_cycle;Signal;HPM_P1;HPM_P2
2021/12/15 00:04:29;;;;;;;14.70;6.50;;;23.70;50.80;;;;;;214442;1316;22551;-52
2021/12/15 00:09:33;;;;;;;11.70;5.80;;;23.70;51.50;;;;;;214458;1316;25345;-55
2021/12/15 00:14:36;;;;;;;13.90;6.00;;;23.70;52.80;;;;;;214400;1315;25503;-53
2021/12/15 00:19:41;;;;;;;11.50;5.20;;;23.60;53.10;;;;;;214436;1316;22597;-51
2021/12/15 00:24:44;;;;;;;13.70;6.20;;;23.50;53.40;;;;;;214418;1316;22571;-55
2021/12/15 00:29:48;;;;;;;11.50;5.40;;;23.40;53.60;;;;;;214298;1318;22580;-53
2021/12/15 00:34:52;;;;;;;10.30;5.50;;;23.20;53.80;;;;;;214393;1315;22590;-53
2021/12/15 00:39:56;;;;;;;11.80;5.50;;;23.10;53.80;;;;;;214337;1315;24251;-54
2021/12/15 00:45:00;;;;;;;10.90;5.30;;;22.90;54.40;;;;;;214493;1315;22640;-52
2021/12/15 00:50:07;;;;;;;11.20;5.70;;;22.80;54.20;;;;;;214452;1316;25416;-54
2021/12/15 00:55:19;;;;;;;10.90;5.30;;;22.70;54.50;;;;;;214437;1316;26940;-51
2021/12/15 01:00:52;;;;;;;11.20;6.00;;;22.60;54.40;;;;;;214331;1316;24439;-54
2021/12/15 01:06:03;;;;;;;11.80;6.50;;;22.50;54.50;;;;;;214312;1314;157823;-51
2021/12/15 01:11:22;;;;;;;9.80;5.60;;;22.50;54.60;;;;;;214379;1316;25337;-53
2021/12/15 01:21:52;;;;;;;10.30;5.30;;;22.40;55.00;;;;;;214454;1316;22558;-55
2021/12/15 01:26:57;;;;;;;8.80;5.30;;;22.30;54.80;;;;;;214627;1315;27571;-53
2021/12/15 01:32:00;;;;;;;10.40;5.90;;;22.30;54.60;;;;;;214517;1316;22558;-55
2021/12/15 01:37:06;;;;;;;10.20;5.20;;;22.30;54.70;;;;;;214500;1316;22791;-52
2021/12/15 01:42:13;;;;;;;10.80;5.30;;;22.20;54.60;;;;;;214584;1316;22662;-51
2021/12/15 01:47:17;;;;;;;9.40;5.30;;;22.20;54.90;;;;;;214669;1310;22558;-55
2021/12/15 01:52:30;;;;;;;7.30;4.60;;;22.30;54.40;;;;;;214766;1316;22596;-55
2021/12/15 01:57:37;;;;;;;9.60;5.40;;;22.50;54.40;;;;;;214788;1309;22587;-54
2021/12/15 02:02:41;;;;;;;9.30;5.50;;;22.80;53.20;;;;;;214314;1314;26525;-57
2021/12/15 02:07:48;;;;;;;9.80;5.80;;;23.10;52.50;;;;;;214130;1316;24360;-56
2021/12/15 02:12:51;;;;;;;8.00;5.30;;;23.10;52.30;;;;;;214552;1316;22732;-54
2021/12/15 02:17:56;;;;;;;9.70;5.20;;;23.10;52.20;;;;;;214114;1316;22983;-52
2021/12/15 02:23:01;;;;;;;8.50;5.50;;;23.20;52.40;;;;;;214461;1315;22563;-52
2021/12/15 02:28:08;;;;;;;8.00;5.00;;;23.20;51.80;;;;;;214396;1316;22729;-52
2021/12/15 02:39:07;;;;;;;9.70;5.70;;;23.20;52.20;;;;;;214345;1315;22735;-55
2021/12/15 02:44:17;;;;;;;9.30;5.40;;;23.30;51.60;;;;;;214489;1313;25554;-56
2021/12/15 02:49:28;;;;;;;8.20;5.10;;;23.30;51.60;;;;;;214428;1316;22699;-51
2021/12/15 02:54:32;;;;;;;8.00;5.00;;;23.20;51.70;;;;;;214442;1315;22569;-56
2021/12/15 03:00:02;;;;;;;8.70;5.10;;;23.20;51.70;;;;;;214555;1316;25401;-53
2021/12/15 03:15:41;;;;;;;7.80;5.20;;;23.20;51.30;;;;;;214416;1316;22577;-52
2021/12/15 03:20:54;;;;;;;7.50;4.70;;;23.30;51.30;;;;;;214389;1316;22599;-55
2021/12/15 03:25:59;;;;;;;7.00;4.90;;;23.30;51.10;;;;;;214357;1315;22641;-55
2021/12/15 03:37:38;;;;;;;8.80;4.80;;;23.50;50.90;;;;;;213955;1315;22583;-55
2021/12/15 03:42:20;;;;;;;6.90;4.60;;;23.40;51.00;;;;;;214279;1315;23956;-54
2021/12/15 03:47:34;;;;;;;7.80;5.40;;;23.40;51.30;;;;;;214423;1316;22555;-58
2021/12/15 03:52:38;;;;;;;7.30;4.80;;;23.40;51.10;;;;;;214305;1315;22583;-54
2021/12/15 03:57:42;;;;;;;8.10;5.20;;;23.40;51.00;;;;;;214337;1314;24243;-53
2021/12/15 04:02:46;;;;;;;7.90;4.90;;;23.40;51.00;;;;;;214466;1314;22640;-52
2021/12/15 04:07:52;;;;;;;8.60;4.90;;;23.40;50.90;;;;;;214410;1317;22620;-52
2021/12/15 04:12:56;;;;;;;7.40;4.50;;;23.40;50.80;;;;;;214536;1316;22590;-57
2021/12/15 04:18:02;;;;;;;7.40;4.60;;;23.40;50.80;;;;;;214568;1314;25474;-55
2021/12/15 04:23:09;;;;;;;6.90;4.30;;;23.40;50.70;;;;;;214358;1316;22551;-52
2021/12/15 04:28:23;;;;;;;7.20;4.80;;;23.40;50.90;;;;;;214558;1315;22579;-51
2021/12/15 04:33:35;;;;;;;7.40;4.90;;;23.50;50.70;;;;;;214364;1316;22599;-53
2021/12/15 04:38:41;;;;;;;6.80;4.50;;;23.50;50.70;;;;;;214374;1314;22650;-51
2021/12/15 04:43:55;;;;;;;8.40;4.60;;;23.40;50.70;;;;;;214412;1316;26636;-52
2021/12/15 04:49:00;;;;;;;6.10;3.90;;;23.50;50.90;;;;;;214362;1317;22589;-53
2021/12/15 04:54:05;;;;;;;7.70;4.50;;;23.50;50.60;;;;;;214658;1315;25475;-51
2021/12/15 04:59:10;;;;;;;8.90;4.40;;;23.50;50.60;;;;;;214397;1316;22664;-54
2021/12/15 05:04:14;;;;;;;8.00;4.40;;;23.50;50.70;;;;;;214521;1314;22567;-52
2021/12/15 05:09:18;;;;;;;6.70;4.40;;;23.50;50.60;;;;;;214518;1315;25351;-53
2021/12/15 05:14:24;;;;;;;6.80;4.50;;;23.40;50.70;;;;;;214501;1315;24318;-55
2021/12/15 05:19:28;;;;;;;6.70;4.40;;;23.40;50.60;;;;;;214414;1314;22656;-54
2021/12/15 05:24:35;;;;;;;6.10;4.50;;;23.40;50.60;;;;;;214381;1309;22586;-54
2021/12/15 05:29:42;;;;;;;6.10;4.40;;;23.50;50.60;;;;;;214412;1314;24845;-54
2021/12/15 05:34:47;;;;;;;6.30;4.60;;;23.40;50.60;;;;;;214395;1314;24251;-54
2021/12/15 05:39:53;;;;;;;5.90;4.30;;;23.50;50.90;;;;;;214448;1317;23205;-53
2021/12/15 05:44:57;;;;;;;6.20;4.40;;;23.50;50.40;;;;;;214496;1314;25443;-51
2021/12/15 05:50:04;;;;;;;6.20;3.90;;;23.50;51.00;;;;;;214384;1316;22750;-52
2021/12/15 05:55:11;;;;;;;6.50;3.90;;;23.60;50.50;;;;;;214025;1312;25617;-55
2021/12/15 06:00:21;;;;;;;5.30;3.90;;;23.50;50.50;;;;;;214416;1314;22576;-52
2021/12/15 06:05:26;;;;;;;7.10;4.20;;;23.60;50.50;;;;;;214357;1310;24276;-55
2021/12/15 06:10:30;;;;;;;6.50;4.40;;;23.50;50.40;;;;;;214468;1310;24272;-55
2021/12/15 06:15:35;;;;;;;6.30;4.20;;;23.50;50.80;;;;;;214325;1319;23026;-56
2021/12/15 06:20:40;;;;;;;6.00;4.60;;;23.50;50.40;;;;;;214325;1315;22615;-53
2021/12/15 06:25:47;;;;;;;7.20;4.10;;;23.50;50.40;;;;;;214335;1316;22586;-56
2021/12/15 06:30:58;;;;;;;5.40;4.00;;;23.50;50.50;;;;;;214357;1309;22641;-52
2021/12/15 06:36:06;;;;;;;6.10;4.00;;;23.50;50.80;;;;;;214504;1309;22802;-52
2021/12/15 06:41:11;;;;;;;6.00;4.10;;;23.40;50.50;;;;;;214147;1318;25384;-52
2021/12/15 06:47:18;;;;;;;5.70;3.50;;;23.40;50.20;;;;;;214325;1309;24330;-54
2021/12/15 06:57:32;;;;;;;8.60;4.80;;;23.50;51.40;;;;;;214375;1313;25384;-52
2021/12/15 07:02:38;;;;;;;11.10;4.30;;;23.50;51.80;;;;;;214403;1309;24325;-54
2021/12/15 07:07:45;;;;;;;7.80;3.90;;;23.50;51.50;;;;;;214354;1309;25666;-55
2021/12/15 07:12:49;;;;;;;8.00;3.80;;;23.50;51.40;;;;;;214586;1312;22644;-54
2021/12/15 07:18:00;;;;;;;8.10;4.20;;;23.60;51.80;;;;;;214460;1316;22871;-53
2021/12/15 07:23:15;;;;;;;8.70;4.20;;;23.60;52.10;;;;;;214284;1315;25248;-51
2021/12/15 07:28:24;;;;;;;7.50;4.30;;;23.50;52.40;;;;;;214387;1309;22909;-54
2021/12/15 07:33:28;;;;;;;9.10;4.20;;;23.60;52.30;;;;;;214395;1313;22622;-56
2021/12/15 07:38:34;;;;;;;10.80;4.30;;;23.70;52.10;;;;;;214469;1310;22614;-56
2021/12/15 07:43:39;;;;;;;10.60;4.10;;;23.60;52.40;;;;;;214005;1309;22585;-55
2021/12/15 07:48:48;;;;;;;11.90;3.80;;;23.50;52.80;;;;;;214268;1309;26735;-51
2021/12/15 07:53:59;;;;;;;7.10;3.80;;;23.30;52.90;;;;;;214448;1309;24757;-53
2021/12/15 07:59:04;;;;;;;9.30;3.90;;;23.20;53.70;;;;;;214440;1309;22597;-55
2021/12/15 08:04:10;;;;;;;15.90;4.10;;;23.10;53.40;;;;;;217983;1309;25390;-55
2021/12/15 08:09:17;;;;;;;9.90;3.90;;;23.00;54.00;;;;;;214471;1309;24329;-55
2021/12/15 08:14:21;;;;;;;6.40;4.40;;;23.00;53.90;;;;;;213962;1309;25282;-52
2021/12/15 08:19:25;;;;;;;7.70;4.30;;;22.90;53.90;;;;;;213539;1310;22666;-52
2021/12/15 08:24:30;;;;;;;7.10;4.50;;;22.80;54.30;;;;;;214174;1309;25426;-54
2021/12/15 08:29:35;;;;;;;11.10;4.50;;;22.70;53.80;;;;;;214354;1310;25261;-53
2021/12/15 08:34:40;;;;;;;7.90;4.20;;;22.70;54.10;;;;;;213877;1309;24457;-56
2021/12/15 08:40:06;;;;;;;7.30;4.50;;;22.60;54.20;;;;;;214106;1309;24079;-55
2021/12/15 08:45:52;;;;;;;10.40;3.90;;;22.60;54.30;;;;;;214299;1309;26600;-52
2021/12/15 08:51:25;;;;;;;7.00;4.00;;;22.50;54.20;;;;;;214316;1309;25585;-55
2021/12/15 08:56:53;;;;;;;;;;;22.50;54.30;;;;;;214347;1309;22549;-54
2021/12/15 09:02:05;;;;;;;7.80;4.10;;;22.40;54.30;;;;;;214337;1309;24236;-51
2021/12/15 09:07:45;;;;;;;6.40;4.10;;;22.40;54.20;;;;;;214083;1307;22590;-53
2021/12/15 09:13:38;;;;;;;5.80;3.70;;;22.30;54.30;;;;;;214218;1312;22569;-51
2021/12/15 09:19:12;;;;;;;9.90;4.00;;;22.20;54.40;;;;;;214128;1310;22553;-54
2021/12/15 09:24:30;;;;;;;7.20;3.90;;;22.20;54.60;;;;;;213841;1312;25280;-54
2021/12/15 09:29:34;;;;;;;5.20;3.90;;;22.20;54.50;;;;;;213731;1309;24248;-53
2021/12/15 09:34:38;;;;;;;7.00;4.00;;;22.30;54.30;;;;;;214074;1310;24308;-55
2021/12/15 09:39:42;;;;;;;6.90;4.10;;;22.70;53.60;;;;;;217514;1309;22726;-52
2021/12/15 09:45:19;;;;;;;6.10;3.80;;;22.90;52.80;;;;;;214239;1309;22596;-54
2021/12/15 10:07:02;;;;;;;6.30;3.70;;;23.10;52.50;;;;;;214415;1309;22558;-52
2021/12/15 10:22:45;;;;;;;5.20;3.40;;;23.10;52.30;;;;;;214928;1312;22876;-55
2021/12/15 10:27:53;;;;;;;7.40;3.70;;;23.10;52.10;;;;;;215080;1313;22643;-55
2021/12/15 10:33:15;;;;;;;4.50;3.10;;;23.10;52.10;;;;;;215369;1309;22729;-55
2021/12/15 10:38:28;;;;;;;6.00;3.70;;;23.10;52.10;;;;;;214901;1309;25549;-54
2021/12/15 10:43:45;;;;;;;6.30;4.10;;;23.10;52.60;;;;;;214415;1310;22606;-56
2021/12/15 10:48:59;;;;;;;7.70;3.80;;;23.20;51.90;;;;;;214342;1310;22817;-55
2021/12/15 10:54:34;;;;;;;4.70;3.50;;;23.10;51.80;;;;;;214170;1310;22910;-53
2021/12/15 10:59:57;;;;;;;4.80;3.30;;;23.10;52.00;;;;;;214202;1309;24959;-55
2021/12/15 11:05:22;;;;;;;5.40;3.50;;;23.10;51.80;;;;;;214383;1309;24298;-55
2021/12/15 11:10:35;;;;;;;5.10;3.50;;;23.20;51.60;;;;;;214106;1309;25546;-55
2021/12/15 11:15:57;;;;;;;5.50;3.60;;;23.30;51.40;;;;;;214271;1309;25383;-52
2021/12/15 11:21:14;;;;;;;4.90;3.40;;;23.30;51.90;;;;;;214396;1309;24491;-56
2021/12/15 11:26:33;;;;;;;5.40;3.50;;;23.20;51.60;;;;;;214063;1312;24293;-53
2021/12/15 11:31:53;;;;;;;4.30;3.30;;;23.20;51.60;;;;;;214440;1309;25551;-55
2021/12/15 11:36:57;;;;;;;4.40;3.00;;;23.30;51.70;;;;;;214534;1309;22636;-53
2021/12/15 11:42:05;;;;;;;5.00;3.50;;;23.20;52.00;;;;;;214315;1309;25374;-58
2021/12/15 11:47:33;;;;;;;5.60;3.00;;;23.20;52.00;;;;;;214149;1309;22590;-52
2021/12/15 11:52:48;;;;;;;5.30;3.50;;;23.20;51.70;;;;;;214277;1309;22581;-53
2021/12/15 11:58:23;;;;;;;4.40;3.40;;;23.20;51.60;;;;;;213991;1311;25149;-56
2021/12/15 12:03:41;;;;;;;4.30;3.20;;;23.20;51.50;;;;;;214173;1309;24414;-55
2021/12/15 12:08:51;;;;;;;4.30;3.10;;;23.30;51.70;;;;;;214093;1309;22573;-53
2021/12/15 12:14:19;;;;;;;4.30;3.20;;;23.30;51.30;;;;;;213922;1309;25501;-56
2021/12/15 12:19:30;;;;;;;5.30;2.90;;;23.30;51.30;;;;;;214191;1309;22577;-56
2021/12/15 12:24:54;;;;;;;4.70;3.20;;;23.30;51.10;;;;;;214355;1309;25566;-55
2021/12/15 12:30:10;;;;;;;3.70;2.80;;;23.20;51.40;;;;;;214326;1309;25430;-55
2021/12/15 12:35:28;;;;;;;4.70;2.90;;;23.20;51.50;;;;;;214166;1309;24440;-52
2021/12/15 12:40:49;;;;;;;5.20;2.80;;;23.20;51.70;;;;;;214239;1309;22587;-54
2021/12/15 12:46:15;;;;;;;4.20;3.00;;;23.30;51.30;;;;;;214295;1313;22653;-56
2021/12/15 13:03:20;;;;;;;4.30;2.70;;;23.30;51.40;;;;;;214269;1309;25522;-57
2021/12/15 13:08:44;;;;;;;4.30;3.00;;;23.30;51.60;;;;;;214304;1309;25025;-52
2021/12/15 13:14:06;;;;;;;4.40;3.00;;;23.30;51.70;;;;;;214205;1309;25525;-55
2021/12/15 13:19:53;;;;;;;4.10;2.80;;;23.30;51.70;;;;;;214228;1309;24415;-51
2021/12/15 13:30:48;;;;;;;3.50;2.40;;;23.40;51.10;;;;;;214265;1309;24154;-53
2021/12/15 13:36:30;;;;;;;4.00;2.90;;;23.30;51.50;;;;;;214602;1310;22590;-55
2021/12/15 13:42:13;;;;;;;5.00;3.30;;;23.30;51.10;;;;;;214334;1310;22593;-55
2021/12/15 13:47:26;;;;;;;4.00;3.10;;;23.30;50.90;;;;;;214535;1309;24247;-51
2021/12/15 13:52:44;;;;;;;3.90;2.80;;;23.40;51.20;;;;;;213937;1313;22652;-55
2021/12/15 13:58:20;;;;;;;4.50;2.50;;;23.30;51.30;;;;;;213769;1312;22592;-54
2021/12/15 14:03:34;;;;;;;4.20;2.60;;;23.30;51.40;;;;;;214365;1309;22717;-52
2021/12/15 14:08:44;;;;;;;3.90;2.20;;;23.30;51.30;;;;;;214284;1309;22593;-55
2021/12/15 14:14:24;;;;;;;3.90;2.50;;;23.30;51.20;;;;;;214279;1313;24133;-55
2021/12/15 14:19:37;;;;;;;3.50;2.40;;;23.30;51.50;;;;;;214262;1309;24353;-54
2021/12/15 14:24:50;;;;;;;4.10;2.60;;;23.30;51.10;;;;;;213960;1314;25317;-52
2021/12/15 14:29:58;;;;;;;4.20;2.60;;;23.30;51.40;;;;;;214272;1309;22568;-55
2021/12/15 14:35:24;;;;;;;5.80;2.60;;;23.40;51.10;;;;;;214246;1309;25437;-53
2021/12/15 14:40:51;;;;;;;3.50;2.50;;;23.40;51.30;;;;;;214182;1309;22562;-55
2021/12/15 14:46:40;;;;;;;4.90;2.90;;;23.40;50.80;;;;;;214183;1309;24247;-54
2021/12/15 14:52:23;;;;;;;3.70;2.90;;;23.40;50.60;;;;;;214027;1309;24336;-53
2021/12/15 14:57:44;;;;;;;3.20;2.60;;;23.50;50.40;;;;;;214328;1309;24242;-53
2021/12/15 15:02:59;;;;;;;3.80;2.70;;;23.50;50.60;;;;;;214165;1309;22725;-54
2021/12/15 15:08:44;;;;;;;4.70;2.80;;;23.40;50.60;;;;;;214062;1309;25949;-54
2021/12/15 15:14:45;;;;;;;3.60;2.40;;;23.40;50.70;;;;;;214055;1309;25495;-51
2021/12/15 15:20:19;;;;;;;4.20;2.60;;;23.40;51.00;;;;;;214306;1309;22829;-53
2021/12/15 15:25:59;;;;;;;3.80;2.80;;;23.50;50.80;;;;;;214248;1310;23972;-52
2021/12/15 15:37:49;;;;;;;4.50;2.80;;;23.40;50.70;;;;;;214312;1312;25594;-55
2021/12/15 15:43:48;;;;;;;5.90;2.80;;;23.40;50.90;;;;;;214309;1309;22588;-55
2021/12/15 15:49:18;;;;;;;6.90;2.60;;;23.50;50.40;;;;;;213723;1309;24328;-54
2021/12/15 15:54:41;;;;;;;5.30;2.50;;;23.50;50.50;;;;;;214330;1309;22639;-52
2021/12/15 15:59:59;;;;;;;8.00;2.60;;;23.60;50.40;;;;;;214127;1309;22563;-56
2021/12/15 16:05:35;;;;;;;7.90;2.70;;;23.60;50.40;;;;;;215010;1309;22580;-55
2021/12/15 16:10:47;;;;;;;8.10;3.20;;;23.70;50.10;;;;;;213941;1309;25505;-57
2021/12/15 16:16:43;;;;;;;5.10;2.80;;;23.70;50.30;;;;;;213777;1312;25700;-54
2021/12/15 16:28:19;;;;;;;5.70;2.80;;;23.70;50.30;;;;;;214070;1309;25350;-55
2021/12/15 16:33:38;;;;;;;6.20;3.20;;;23.70;50.30;;;;;;214161;1315;25236;-54
2021/12/15 16:38:58;;;;;;;4.40;2.50;;;23.70;50.40;;;;;;214423;1310;25271;-55
2021/12/15 16:44:20;;;;;;;8.10;2.60;;;23.70;50.40;;;;;;214166;1309;25576;-55
2021/12/15 16:49:42;;;;;;;3.70;2.40;;;23.70;50.30;;;;;;214164;1309;25612;-55
2021/12/15 16:55:00;;;;;;;4.10;2.50;;;23.70;50.30;;;;;;213869;1309;24476;-56
2021/12/15 17:00:23;;;;;;;6.80;2.60;;;23.60;50.60;;;;;;214012;1310;22884;-56
2021/12/15 17:05:44;;;;;;;4.30;2.80;;;23.50;50.70;;;;;;211575;1312;3089341;-55
2021/12/15 17:11:08;;;;;;;7.70;2.90;;;23.50;50.60;;;;;;214051;1310;22766;-55
2021/12/15 17:16:36;;;;;;;6.10;3.10;;;23.30;50.00;;;;;;214105;1310;25303;-54
2021/12/15 17:22:08;;;;;;;5.50;2.80;;;23.20;50.00;;;;;;214409;1310;24247;-56
2021/12/15 17:27:20;;;;;;;5.40;2.90;;;23.10;50.00;;;;;;214208;1309;24333;-53
2021/12/15 17:32:36;;;;;;;6.90;3.00;;;23.00;50.60;;;;;;214112;1310;24486;-55
2021/12/15 17:37:52;;;;;;;6.00;3.20;;;23.00;51.30;;;;;;213981;1314;25381;-55
2021/12/15 17:43:01;;;;;;;4.50;3.00;;;22.90;52.30;;;;;;214306;1313;22563;-52
2021/12/15 17:48:08;;;;;;;8.00;3.30;;;22.90;52.10;;;;;;214226;1315;22590;-56
2021/12/15 17:53:27;;;;;;;5.00;2.90;;;22.90;52.30;;;;;;214133;1309;22598;-55
2021/12/15 17:58:43;;;;;;;5.80;2.90;;;22.80;52.50;;;;;;213942;1310;22584;-54
2021/12/15 18:03:57;;;;;;;9.80;3.30;;;22.70;52.40;;;;;;213947;1309;22571;-56
2021/12/15 18:09:03;;;;;;;8.70;3.20;;;22.60;52.30;;;;;;214202;1315;22570;-55
2021/12/15 18:14:29;;;;;;;6.70;3.60;;;22.60;52.40;;;;;;214003;1309;24123;-55
2021/12/15 18:19:36;;;;;;;10.50;3.50;;;22.60;53.00;;;;;;214185;1310;22620;-54
2021/12/15 18:24:48;;;;;;;8.90;3.50;;;22.60;53.00;;;;;;214309;1309;24325;-53
2021/12/15 18:30:11;;;;;;;8.70;3.30;;;22.50;53.40;;;;;;214137;1309;22772;-53
2021/12/15 18:35:20;;;;;;;13.00;2.90;;;22.50;53.90;;;;;;214002;1311;22739;-55
2021/12/15 18:40:33;;;;;;;5.90;3.20;;;22.50;54.10;;;;;;214333;1309;22636;-52
2021/12/15 18:45:42;;;;;;;6.90;3.40;;;22.40;54.50;;;;;;214558;1315;26623;-53
2021/12/15 18:50:56;;;;;;;8.50;2.90;;;22.50;54.60;;;;;;214238;1311;22600;-54
2021/12/15 18:56:04;;;;;;;13.20;3.40;;;22.50;54.20;;;;;;214312;1313;22935;-52
2021/12/15 19:01:15;;;;;;;15.30;3.60;;;22.40;54.80;;;;;;214404;1315;24790;-54
2021/12/15 19:06:34;;;;;;;6.20;3.10;;;22.40;54.60;;;;;;214151;1315;22582;-54
2021/12/15 19:11:59;;;;;;;13.70;3.30;;;22.40;54.80;;;;;;214345;1315;24283;-56
2021/12/15 19:17:10;;;;;;;5.40;3.20;;;22.50;57.30;;;;;;214188;1313;25532;-55
2021/12/15 19:22:18;;;;;;;12.50;3.60;;;22.40;55.80;;;;;;214138;1312;22584;-56
2021/12/15 19:27:25;;;;;;;7.80;3.70;;;22.40;55.60;;;;;;214597;1313;25168;-56
2021/12/15 19:32:34;;;;;;;13.10;4.30;;;22.50;55.60;;;;;;214169;1315;22561;-52
2021/12/15 19:37:47;;;;;;;14.20;3.80;;;22.40;56.20;;;;;;214162;1315;22603;-55
2021/12/15 19:42:55;;;;;;;12.40;3.50;;;22.30;56.30;;;;;;214241;1309;25923;-53
2021/12/15 19:48:07;;;;;;;10.70;3.80;;;22.30;56.50;;;;;;214223;1315;22587;-55
2021/12/15 19:53:11;;;;;;;11.30;4.10;;;22.20;56.50;;;;;;214328;1316;24308;-53
2021/12/15 19:58:20;;;;;;;19.30;4.00;;;22.30;56.40;;;;;;214033;1315;22618;-52
2021/12/15 20:03:31;;;;;;;21.60;4.10;;;22.30;57.20;;;;;;213930;1315;25661;-56
2021/12/15 20:08:49;;;;;;;22.60;4.00;;;22.40;56.40;;;;;;214397;1316;22566;-55
2021/12/15 20:14:05;;;;;;;12.70;3.70;;;22.40;56.80;;;;;;214368;1309;22599;-54
2021/12/15 20:19:37;;;;;;;19.50;3.90;;;22.40;56.90;;;;;;214413;1315;25597;-52
2021/12/15 20:24:48;;;;;;;14.80;3.20;;;22.30;56.70;;;;;;214232;1315;23203;-52
2021/12/15 20:29:59;;;;;;;8.80;4.10;;;22.20;57.00;;;;;;214272;1314;22772;-54
2021/12/15 20:35:10;;;;;;;12.30;3.30;;;22.10;56.90;;;;;;214242;1315;22575;-53
2021/12/15 20:40:16;;;;;;;9.90;3.60;;;22.10;57.20;;;;;;214336;1315;25326;-53
2021/12/15 20:45:21;;;;;;;9.10;3.20;;;22.10;56.90;;;;;;214386;1314;22603;-54
2021/12/15 20:50:32;;;;;;;6.50;3.20;;;22.40;56.30;;;;;;214301;1313;22679;-52
2021/12/15 20:55:36;;;;;;;13.80;3.60;;;22.50;56.40;;;;;;213693;1309;24326;-52
2021/12/15 21:00:45;;;;;;;10.20;3.20;;;22.70;55.80;;;;;;214238;1310;22559;-55
2021/12/15 21:06:30;;;;;;;12.20;4.20;;;22.70;55.90;;;;;;214275;1309;25274;-53
2021/12/15 21:11:42;;;;;;;10.90;3.50;;;22.70;56.20;;;;;;213898;1316;22569;-52
2021/12/15 21:16:57;;;;;;;14.40;3.20;;;22.80;56.00;;;;;;214185;1309;22623;-53
2021/12/15 21:22:14;;;;;;;12.10;3.20;;;22.70;56.30;;;;;;214065;1309;22809;-53
2021/12/15 21:27:25;;;;;;;13.60;3.90;;;22.80;56.60;;;;;;213928;1309;22777;-51
2021/12/15 21:32:39;;;;;;;9.60;3.50;;;22.90;56.80;;;;;;213737;1309;22584;-54
2021/12/15 21:37:46;;;;;;;14.70;3.50;;;22.80;57.00;;;;;;213850;1313;22590;-53
2021/12/15 21:42:50;;;;;;;12.30;3.60;;;22.80;57.10;;;;;;214073;1309;22596;-51
2021/12/15 21:47:56;;;;;;;7.40;3.00;;;22.90;57.10;;;;;;214129;1309;24323;-54
2021/12/15 21:53:00;;;;;;;7.40;3.20;;;22.90;56.60;;;;;;214464;1309;22588;-52
2021/12/15 21:58:10;;;;;;;9.80;3.50;;;22.90;56.40;;;;;;213713;1309;24264;-55
2021/12/15 22:03:19;;;;;;;7.80;3.50;;;22.90;56.40;;;;;;213995;1314;25444;-50
2021/12/15 22:08:49;;;;;;;9.30;3.30;;;23.00;56.50;;;;;;214083;1309;26119;-52
2021/12/15 22:13:59;;;;;;;7.60;2.80;;;22.90;56.60;;;;;;214074;1309;22552;-53
2021/12/15 22:19:07;;;;;;;10.70;3.40;;;23.00;56.10;;;;;;214097;1309;22767;-50
2021/12/15 22:24:31;;;;;;;6.00;2.80;;;23.10;56.20;;;;;;213692;1311;23706;-55
2021/12/15 22:29:43;;;;;;;6.30;2.70;;;23.10;55.60;;;;;;214325;1309;24277;-51
2021/12/15 22:34:51;;;;;;;6.70;2.90;;;23.10;55.70;;;;;;214109;1313;22589;-52
2021/12/15 22:39:55;;;;;;;7.30;3.00;;;23.20;55.60;;;;;;214032;1309;22583;-51
2021/12/15 22:45:05;;;;;;;12.40;3.90;;;23.10;55.70;;;;;;214020;1309;22667;-53
2021/12/15 22:50:15;;;;;;;6.20;2.50;;;22.80;56.00;;;;;;214126;1309;24313;-52
2021/12/15 22:55:23;;;;;;;11.50;3.20;;;22.90;55.80;;;;;;213945;1309;22617;-56
2021/12/15 23:00:44;;;;;;;6.90;2.70;;;23.10;55.40;;;;;;214053;1309;24247;-52
2021/12/15 23:05:55;;;;;;;10.20;2.90;;;23.20;55.60;;;;;;214294;1310;22581;-52
2021/12/15 23:11:05;;;;;;;9.60;3.00;;;23.30;55.00;;;;;;214248;1309;22704;-51
2021/12/15 23:16:09;;;;;;;9.90;3.30;;;23.20;55.20;;;;;;215551;1309;22641;-51
2021/12/15 23:21:16;;;;;;;6.60;3.00;;;23.30;55.20;;;;;;214306;1309;22751;-51
2021/12/15 23:26:23;;;;;;;9.60;2.90;;;23.30;55.20;;;;;;214237;1309;22604;-54
2021/12/15 23:31:31;;;;;;;6.60;2.50;;;23.30;55.00;;;;;;214067;1309;22682;-50
2021/12/15 23:36:45;;;;;;;6.70;3.30;;;23.30;55.20;;;;;;214339;1310;25365;-55
